createdAt,value
2019-04-25T00:01:49.788Z,99.90
2019-04-25T00:06:45.028Z,99.90
2019-04-25T00:11:39.305Z,99.90
2019-04-25T00:16:35.060Z,99.90
2019-04-25T00:21:38.238Z,99.90
2019-04-25T00:26:37.917Z,99.90
2019-04-25T00:31:32.297Z,99.90
2019-04-25T00:36:26.215Z,99.90
2019-04-25T00:41:21.320Z,99.90
2019-04-25T00:46:15.496Z,99.90
2019-04-25T00:51:09.201Z,99.90
2019-04-25T00:56:03.082Z,99.90
2019-04-25T01:01:25.363Z,99.90
2019-04-25T01:06:19.523Z,99.90
2019-04-25T01:11:13.455Z,99.90
2019-04-25T01:16:08.067Z,99.90
2019-04-25T01:21:02.113Z,99.90
2019-04-25T01:25:56.171Z,99.90
2019-04-25T01:30:49.966Z,99.90
2019-04-25T01:35:58.771Z,99.90
2019-04-25T01:41:03.429Z,99.90
2019-04-25T01:45:57.962Z,99.90
2019-04-25T01:50:53.909Z,99.90
2019-04-25T01:55:56.001Z,99.90
2019-04-25T02:00:46.649Z,99.90
2019-04-25T02:05:40.580Z,99.90
2019-04-25T02:10:34.654Z,99.90
2019-04-25T02:15:31.189Z,99.90
2019-04-25T02:20:25.633Z,99.90
2019-04-25T02:25:19.471Z,99.90
2019-04-25T02:30:16.109Z,99.90
2019-04-25T02:35:10.143Z,99.90
2019-04-25T02:40:07.885Z,99.90
2019-04-25T02:45:10.033Z,99.90
2019-04-25T02:50:24.704Z,99.90
2019-04-25T02:55:30.870Z,99.90
2019-04-25T03:00:45.933Z,99.90
2019-04-25T03:05:25.562Z,99.90
2019-04-25T03:10:19.584Z,99.90
2019-04-25T03:15:14.435Z,99.90
2019-04-25T03:20:46.467Z,99.90
2019-04-25T03:25:40.673Z,99.90
2019-04-25T03:30:35.486Z,99.90
2019-04-25T03:35:29.480Z,99.90
2019-04-25T03:40:23.628Z,99.90
2019-04-25T03:45:18.734Z,99.90
2019-04-25T03:50:13.991Z,99.90
2019-04-25T03:55:08.698Z,99.90
2019-04-25T04:00:05.944Z,99.90
2019-04-25T04:04:58.992Z,99.90
2019-04-25T04:09:53.253Z,99.90
2019-04-25T04:14:48.792Z,99.90
2019-04-25T04:20:03.924Z,99.90
2019-04-25T04:24:59.697Z,99.90
2019-04-25T04:29:54.250Z,99.90
2019-04-25T04:34:48.227Z,99.90
2019-04-25T04:39:43.629Z,99.90
2019-04-25T04:44:39.822Z,99.90
2019-04-25T04:49:36.830Z,99.90
2019-04-25T04:54:32.019Z,99.90
2019-04-25T04:59:27.511Z,99.90
2019-04-25T05:04:26.934Z,99.90
2019-04-25T05:09:25.625Z,99.90
2019-04-25T05:14:19.672Z,99.90
2019-04-25T05:19:15.466Z,99.90
2019-04-25T05:24:10.259Z,99.90
2019-04-25T05:29:04.056Z,99.90
2019-04-25T05:33:57.958Z,99.90
2019-04-25T05:38:51.907Z,99.90
2019-04-25T05:43:45.955Z,99.90
2019-04-25T05:48:39.898Z,99.90
2019-04-25T05:53:33.916Z,99.90
2019-04-25T05:58:27.986Z,99.90
2019-04-25T06:03:24.531Z,99.90
2019-04-25T06:08:20.173Z,99.90
2019-04-25T06:13:40.263Z,99.90
2019-04-25T06:18:40.702Z,99.90
2019-04-25T06:24:10.339Z,99.90
2019-04-25T06:29:04.735Z,99.90
2019-04-25T06:33:59.754Z,99.90
2019-04-25T06:38:54.873Z,99.90
2019-04-25T06:43:51.936Z,99.90
2019-04-25T06:48:55.859Z,99.90
2019-04-25T06:53:50.260Z,99.90
2019-04-25T06:58:44.758Z,99.90
2019-04-25T07:03:38.942Z,99.90
2019-04-25T07:08:35.191Z,99.90
2019-04-25T07:13:28.781Z,99.90
2019-04-25T07:18:24.826Z,99.90
2019-04-25T07:23:18.731Z,99.90
2019-04-25T07:28:36.948Z,99.90
2019-04-25T07:33:43.345Z,99.90
2019-04-25T07:38:36.795Z,99.90
2019-04-25T07:43:31.704Z,99.90
2019-04-25T07:48:26.863Z,99.90
2019-04-25T07:53:20.899Z,99.90
2019-04-25T07:58:14.796Z,99.90
2019-04-25T08:03:08.742Z,99.90
2019-04-25T08:08:03.493Z,99.90
2019-04-25T08:12:57.646Z,99.90
2019-04-25T08:17:56.169Z,99.90
2019-04-25T08:22:56.557Z,99.90
2019-04-25T08:27:45.980Z,99.90
2019-04-25T08:32:41.509Z,99.90
2019-04-25T08:37:35.617Z,99.90
2019-04-25T08:42:31.301Z,99.90
2019-04-25T08:47:26.263Z,99.90
2019-04-25T08:52:20.346Z,99.90
2019-04-25T08:57:33.879Z,99.90
2019-04-25T09:02:54.491Z,99.90
2019-04-25T09:07:49.011Z,99.90
2019-04-25T09:12:44.250Z,99.90
2019-04-25T09:17:39.403Z,99.90
2019-04-25T09:22:35.288Z,99.90
2019-04-25T09:27:28.730Z,99.90
2019-04-25T09:32:23.847Z,99.90
2019-04-25T09:37:18.072Z,99.90
2019-04-25T09:42:14.193Z,99.90
2019-04-25T09:47:09.158Z,99.90
2019-04-25T09:52:28.722Z,99.90
2019-04-25T09:57:59.995Z,99.90
2019-04-25T10:02:55.544Z,99.90
2019-04-25T10:07:49.928Z,99.90
2019-04-25T10:12:44.213Z,99.90
2019-04-25T10:17:37.767Z,99.90
2019-04-25T10:22:31.151Z,99.90
2019-04-25T10:27:24.701Z,99.90
2019-04-25T10:32:19.212Z,99.90
2019-04-25T10:37:13.796Z,99.90
2019-04-25T10:42:07.291Z,99.90
2019-04-25T10:47:00.710Z,99.90
2019-04-25T10:51:54.380Z,99.90
2019-04-25T10:56:48.380Z,99.90
2019-04-25T11:01:43.099Z,99.90
2019-04-25T11:06:39.089Z,99.90
2019-04-25T11:11:34.983Z,99.90
2019-04-25T11:16:28.409Z,99.90
2019-04-25T11:21:21.946Z,99.90
2019-04-25T11:26:15.445Z,99.90
2019-04-25T11:31:14.270Z,99.90
2019-04-25T11:36:07.726Z,99.90
2019-04-25T11:41:07.996Z,99.90
2019-04-25T11:46:01.443Z,99.90
2019-04-25T11:50:55.865Z,99.90
2019-04-25T11:55:50.221Z,99.90
2019-04-25T12:00:46.270Z,99.90
2019-04-25T12:05:40.517Z,99.90
2019-04-25T12:10:38.556Z,99.90
2019-04-25T12:15:33.381Z,99.90
2019-04-25T12:20:27.035Z,97.30
2019-04-25T12:25:20.479Z,95.60
2019-04-25T12:30:15.439Z,93.80
2019-04-25T12:35:08.883Z,92.20
2019-04-25T12:40:05.907Z,93.80
2019-04-25T12:45:17.603Z,93.90
2019-04-25T12:50:11.595Z,93.90
2019-04-25T12:55:06.143Z,92.60
2019-04-25T12:59:59.550Z,92.60
2019-04-25T13:04:55.203Z,91.70
2019-04-25T13:09:52.267Z,92.00
2019-04-25T13:14:45.562Z,91.70
2019-04-25T13:19:38.979Z,92.20
2019-04-25T13:24:34.155Z,91.90
2019-04-25T13:29:53.330Z,91.40
2019-04-25T13:34:48.776Z,91.40
2019-04-25T13:39:44.068Z,90.70
2019-04-25T13:44:37.833Z,89.10
2019-04-25T13:49:31.628Z,88.40
2019-04-25T13:54:25.193Z,86.30
2019-04-25T13:59:18.615Z,86.20
2019-04-25T14:04:14.218Z,86.40
2019-04-25T14:09:13.316Z,85.90
2019-04-25T14:14:07.059Z,86.10
2019-04-25T14:19:24.295Z,88.10
2019-04-25T14:24:20.494Z,86.20
2019-04-25T14:29:14.509Z,86.40
2019-04-25T14:34:07.918Z,87.10
2019-04-25T14:39:01.363Z,87.50
2019-04-25T14:43:55.163Z,87.70
2019-04-25T14:48:50.237Z,88.40
2019-04-25T14:53:44.146Z,88.30
2019-04-25T14:58:39.267Z,87.60
2019-04-25T15:03:32.817Z,88.00
2019-04-25T15:08:26.604Z,87.30
2019-04-25T15:13:20.414Z,87.50
2019-04-25T15:18:13.859Z,88.00
2019-04-25T15:23:07.273Z,89.00
2019-04-25T15:28:01.315Z,89.00
2019-04-25T15:32:56.565Z,88.80
2019-04-25T15:37:55.848Z,90.20
2019-04-25T15:42:58.410Z,90.60
2019-04-25T15:47:52.909Z,91.00
2019-04-25T15:52:46.356Z,90.80
2019-04-25T15:57:40.772Z,91.40
2019-04-25T16:02:35.099Z,92.00
2019-04-25T16:07:29.092Z,91.60
2019-04-25T16:12:22.724Z,91.60
2019-04-25T16:17:16.267Z,89.40
2019-04-25T16:22:09.694Z,88.90
2019-04-25T16:27:04.357Z,90.20
2019-04-25T16:31:59.579Z,90.50
2019-04-25T16:36:52.990Z,90.90
2019-04-25T16:41:46.743Z,91.70
2019-04-25T16:46:41.716Z,92.60
2019-04-25T16:51:35.868Z,93.30
2019-04-25T16:56:29.412Z,94.00
2019-04-25T17:01:23.491Z,94.90
2019-04-25T17:06:16.885Z,96.10
2019-04-25T17:11:11.311Z,97.00
2019-04-25T17:16:26.878Z,97.90
2019-04-25T17:21:20.423Z,99.40
2019-04-25T17:26:13.965Z,99.90
2019-04-25T17:31:15.919Z,99.90
2019-04-25T17:36:19.746Z,99.90
2019-04-25T17:41:13.210Z,99.90
2019-04-25T17:46:10.875Z,99.90
2019-04-25T17:51:03.697Z,99.90
2019-04-25T17:55:57.112Z,99.90
2019-04-25T18:00:52.115Z,99.90
2019-04-25T18:05:46.150Z,99.90
2019-04-25T18:10:39.604Z,99.90
2019-04-25T18:15:52.495Z,99.90
2019-04-25T18:20:46.643Z,99.90
2019-04-25T18:26:04.880Z,99.90
2019-04-25T18:30:59.116Z,99.90
2019-04-25T18:35:54.218Z,99.90
2019-04-25T18:41:22.037Z,99.90
2019-04-25T18:46:31.282Z,99.90
2019-04-25T18:51:24.717Z,99.90
2019-04-25T18:56:49.823Z,99.90
2019-04-25T19:02:05.628Z,99.90
2019-04-25T19:06:59.457Z,99.90
2019-04-25T19:11:52.880Z,99.90
2019-04-25T19:16:46.294Z,99.90
2019-04-25T19:21:41.551Z,99.90
2019-04-25T19:26:35.475Z,99.90
2019-04-25T19:31:29.617Z,99.90
2019-04-25T19:36:23.012Z,99.90
2019-04-25T19:41:21.789Z,99.90
2019-04-25T19:46:15.241Z,99.90
2019-04-25T19:51:08.643Z,99.90
2019-04-25T19:56:02.050Z,99.90
2019-04-25T20:00:55.862Z,99.90
2019-04-25T20:06:15.032Z,99.90
2019-04-25T20:11:18.226Z,99.90
2019-04-25T20:16:12.056Z,99.90
2019-04-25T20:21:06.542Z,99.90
2019-04-25T20:26:00.538Z,99.90
2019-04-25T20:30:54.638Z,99.90
2019-04-25T20:35:48.999Z,99.90
2019-04-25T20:40:42.493Z,99.90
2019-04-25T20:45:35.912Z,99.90
2019-04-25T20:50:29.309Z,99.90
2019-04-25T20:55:23.238Z,99.90
2019-04-25T21:00:40.053Z,99.90
2019-04-25T21:05:33.581Z,99.90
2019-04-25T21:10:28.775Z,99.90
2019-04-25T21:15:30.990Z,99.90
2019-04-25T21:20:24.860Z,99.90
2019-04-25T21:25:18.707Z,99.90
2019-04-25T21:30:12.242Z,99.90
2019-04-25T21:35:05.754Z,99.90
2019-04-25T21:40:18.642Z,99.90
2019-04-25T21:45:12.313Z,99.90
2019-04-25T21:50:06.537Z,99.90
2019-04-25T21:55:00.237Z,99.90
2019-04-25T22:00:03.058Z,99.90
2019-04-25T22:04:50.296Z,99.90
2019-04-25T22:09:44.644Z,99.90
2019-04-25T22:14:38.729Z,99.90
2019-04-25T22:19:32.817Z,99.90
2019-04-25T22:24:26.623Z,99.90
2019-04-25T22:29:22.598Z,99.90
2019-04-25T22:34:24.781Z,99.90
2019-04-25T22:39:18.887Z,99.90
2019-04-25T22:44:14.960Z,99.90
2019-04-25T22:49:09.164Z,99.90
2019-04-25T22:54:03.465Z,99.90
2019-04-25T22:58:57.469Z,99.90
2019-04-25T23:03:53.618Z,99.90
2019-04-25T23:08:47.790Z,99.90
2019-04-25T23:13:41.776Z,99.90
2019-04-25T23:18:36.078Z,99.90
2019-04-25T23:23:32.364Z,99.90
2019-04-25T23:28:28.921Z,99.90
2019-04-25T23:33:22.936Z,99.90
2019-04-25T23:38:17.381Z,99.90
2019-04-25T23:43:11.777Z,99.90
2019-04-25T23:48:06.093Z,99.90
2019-04-25T23:53:01.086Z,99.90
2019-04-25T23:57:55.302Z,99.90
